sensor_id;sensor_type;location;lat;lon;timestamp;pressure;altitude;pressure_sealevel;temperature
23208;BMP180;11773;52.570;13.052;2024-02-14T00:00:51;101556.00;;;9.00
23208;BMP180;11773;52.570;13.052;2024-02-14T00:03:21;101559.00;;;9.00
23208;BMP180;11773;52.570;13.052;2024-02-14T00:05:52;101553.00;;;9.00
23208;BMP180;11773;52.570;13.052;2024-02-14T00:08:24;101562.00;;;9.00
23208;BMP180;11773;52.570;13.052;2024-02-14T00:10:53;101558.00;;;9.00
23208;BMP180;11773;52.570;13.052;2024-02-14T00:13:23;101551.00;;;9.00
23208;BMP180;11773;52.570;13.052;2024-02-14T00:15:53;101547.00;;;8.90
23208;BMP180;11773;52.570;13.052;2024-02-14T00:18:24;101543.00;;;8.90
23208;BMP180;11773;52.570;13.052;2024-02-14T00:20:54;101553.00;;;8.90
23208;BMP180;11773;52.570;13.052;2024-02-14T00:23:24;101552.00;;;8.90
23208;BMP180;11773;52.570;13.052;2024-02-14T00:25:53;101562.00;;;8.90
23208;BMP180;11773;52.570;13.052;2024-02-14T00:28:23;101553.00;;;8.90
23208;BMP180;11773;52.570;13.052;2024-02-14T00:30:55;101564.00;;;8.90
23208;BMP180;11773;52.570;13.052;2024-02-14T00:33:25;101548.00;;;8.80
23208;BMP180;11773;52.570;13.052;2024-02-14T00:35:55;101551.00;;;8.80
23208;BMP180;11773;52.570;13.052;2024-02-14T00:38:24;101557.00;;;8.80
23208;BMP180;11773;52.570;13.052;2024-02-14T00:40:54;101560.00;;;8.80
23208;BMP180;11773;52.570;13.052;2024-02-14T00:43:24;101553.00;;;8.80
23208;BMP180;11773;52.570;13.052;2024-02-14T00:45:53;101572.00;;;8.80
23208;BMP180;11773;52.570;13.052;2024-02-14T00:48:25;101557.00;;;8.70
23208;BMP180;11773;52.570;13.052;2024-02-14T00:50:54;101566.00;;;8.80
23208;BMP180;11773;52.570;13.052;2024-02-14T00:53:24;101567.00;;;8.80
23208;BMP180;11773;52.570;13.052;2024-02-14T00:55:54;101564.00;;;8.80
23208;BMP180;11773;52.570;13.052;2024-02-14T00:58:23;101563.00;;;8.70
23208;BMP180;11773;52.570;13.052;2024-02-14T01:00:53;101575.00;;;8.80
23208;BMP180;11773;52.570;13.052;2024-02-14T01:03:22;101568.00;;;8.80
23208;BMP180;11773;52.570;13.052;2024-02-14T01:05:52;101554.00;;;8.80
23208;BMP180;11773;52.570;13.052;2024-02-14T01:08:22;101562.00;;;8.80
23208;BMP180;11773;52.570;13.052;2024-02-14T01:10:52;101561.00;;;8.80
23208;BMP180;11773;52.570;13.052;2024-02-14T01:13:21;101544.00;;;8.70
23208;BMP180;11773;52.570;13.052;2024-02-14T01:15:51;101551.00;;;8.70
23208;BMP180;11773;52.570;13.052;2024-02-14T01:18:21;101554.00;;;8.70
23208;BMP180;11773;52.570;13.052;2024-02-14T01:20:51;101540.00;;;8.70
23208;BMP180;11773;52.570;13.052;2024-02-14T01:23:21;101542.00;;;8.70
23208;BMP180;11773;52.570;13.052;2024-02-14T01:25:51;101535.00;;;8.70
23208;BMP180;11773;52.570;13.052;2024-02-14T01:28:22;101530.00;;;8.70
23208;BMP180;11773;52.570;13.052;2024-02-14T01:30:52;101529.00;;;8.70
23208;BMP180;11773;52.570;13.052;2024-02-14T01:33:22;101530.00;;;8.70
23208;BMP180;11773;52.570;13.052;2024-02-14T01:35:52;101527.00;;;8.70
23208;BMP180;11773;52.570;13.052;2024-02-14T01:38:22;101523.00;;;8.70
23208;BMP180;11773;52.570;13.052;2024-02-14T01:40:51;101520.00;;;8.70
23208;BMP180;11773;52.570;13.052;2024-02-14T01:43:21;101516.00;;;8.70
23208;BMP180;11773;52.570;13.052;2024-02-14T01:45:51;101532.00;;;8.60
23208;BMP180;11773;52.570;13.052;2024-02-14T01:48:20;101518.00;;;8.70
23208;BMP180;11773;52.570;13.052;2024-02-14T01:50:51;101513.00;;;8.70
23208;BMP180;11773;52.570;13.052;2024-02-14T01:53:21;101510.00;;;8.70
23208;BMP180;11773;52.570;13.052;2024-02-14T01:55:53;101521.00;;;8.70
23208;BMP180;11773;52.570;13.052;2024-02-14T01:58:23;101505.00;;;8.70
23208;BMP180;11773;52.570;13.052;2024-02-14T02:00:53;101520.00;;;8.70
23208;BMP180;11773;52.570;13.052;2024-02-14T02:03:25;101505.00;;;8.70
23208;BMP180;11773;52.570;13.052;2024-02-14T02:05:56;101501.00;;;8.60
23208;BMP180;11773;52.570;13.052;2024-02-14T02:08:26;101494.00;;;8.60
23208;BMP180;11773;52.570;13.052;2024-02-14T02:10:56;101494.00;;;8.60
23208;BMP180;11773;52.570;13.052;2024-02-14T02:13:26;101504.00;;;8.60
23208;BMP180;11773;52.570;13.052;2024-02-14T02:15:56;101510.00;;;8.60
23208;BMP180;11773;52.570;13.052;2024-02-14T02:18:25;101510.00;;;8.60
23208;BMP180;11773;52.570;13.052;2024-02-14T02:20:55;101506.00;;;8.60
23208;BMP180;11773;52.570;13.052;2024-02-14T02:23:25;101499.00;;;8.60
23208;BMP180;11773;52.570;13.052;2024-02-14T02:25:55;101509.00;;;8.60
23208;BMP180;11773;52.570;13.052;2024-02-14T02:28:24;101486.00;;;8.60
23208;BMP180;11773;52.570;13.052;2024-02-14T02:30:54;101482.00;;;8.60
23208;BMP180;11773;52.570;13.052;2024-02-14T02:33:24;101483.00;;;8.50
23208;BMP180;11773;52.570;13.052;2024-02-14T02:35:54;101478.00;;;8.50
23208;BMP180;11773;52.570;13.052;2024-02-14T02:38:24;101477.00;;;8.50
23208;BMP180;11773;52.570;13.052;2024-02-14T02:40:54;101488.00;;;8.50
23208;BMP180;11773;52.570;13.052;2024-02-14T02:43:23;101483.00;;;8.50
23208;BMP180;11773;52.570;13.052;2024-02-14T02:45:53;101494.00;;;8.50
23208;BMP180;11773;52.570;13.052;2024-02-14T02:48:22;101480.00;;;8.50
23208;BMP180;11773;52.570;13.052;2024-02-14T02:50:53;101474.00;;;8.50
23208;BMP180;11773;52.570;13.052;2024-02-14T02:53:22;101482.00;;;8.50
23208;BMP180;11773;52.570;13.052;2024-02-14T02:55:52;101483.00;;;8.50
23208;BMP180;11773;52.570;13.052;2024-02-14T02:58:22;101480.00;;;8.50
23208;BMP180;11773;52.570;13.052;2024-02-14T03:00:52;101481.00;;;8.50
23208;BMP180;11773;52.570;13.052;2024-02-14T03:03:23;101473.00;;;8.50
23208;BMP180;11773;52.570;13.052;2024-02-14T03:05:55;101460.00;;;8.50
23208;BMP180;11773;52.570;13.052;2024-02-14T03:08:25;101466.00;;;8.50
23208;BMP180;11773;52.570;13.052;2024-02-14T03:10:54;101464.00;;;8.50
23208;BMP180;11773;52.570;13.052;2024-02-14T03:13:24;101454.00;;;8.50
23208;BMP180;11773;52.570;13.052;2024-02-14T03:15:55;101450.00;;;8.50
23208;BMP180;11773;52.570;13.052;2024-02-14T03:18:26;101468.00;;;8.50
23208;BMP180;11773;52.570;13.052;2024-02-14T03:20:56;101457.00;;;8.50
23208;BMP180;11773;52.570;13.052;2024-02-14T03:23:25;101456.00;;;8.50
23208;BMP180;11773;52.570;13.052;2024-02-14T03:25:56;101453.00;;;8.50
23208;BMP180;11773;52.570;13.052;2024-02-14T03:28:26;101450.00;;;8.50
23208;BMP180;11773;52.570;13.052;2024-02-14T03:30:56;101438.00;;;8.40
23208;BMP180;11773;52.570;13.052;2024-02-14T03:33:25;101435.00;;;8.40
23208;BMP180;11773;52.570;13.052;2024-02-14T03:35:57;101433.00;;;8.40
23208;BMP180;11773;52.570;13.052;2024-02-14T03:38:28;101448.00;;;8.40
23208;BMP180;11773;52.570;13.052;2024-02-14T03:40:59;101424.00;;;8.40
23208;BMP180;11773;52.570;13.052;2024-02-14T03:43:29;101411.00;;;8.40
23208;BMP180;11773;52.570;13.052;2024-02-14T03:46:00;101399.00;;;8.40
23208;BMP180;11773;52.570;13.052;2024-02-14T03:48:30;101422.00;;;8.40
23208;BMP180;11773;52.570;13.052;2024-02-14T03:51:00;101439.00;;;8.40
23208;BMP180;11773;52.570;13.052;2024-02-14T03:53:30;101439.00;;;8.50
23208;BMP180;11773;52.570;13.052;2024-02-14T03:56:01;101436.00;;;8.50
23208;BMP180;11773;52.570;13.052;2024-02-14T03:58:30;101434.00;;;8.50
23208;BMP180;11773;52.570;13.052;2024-02-14T04:01:01;101438.00;;;8.50
23208;BMP180;11773;52.570;13.052;2024-02-14T04:03:31;101440.00;;;8.60
23208;BMP180;11773;52.570;13.052;2024-02-14T04:06:01;101433.00;;;8.60
23208;BMP180;11773;52.570;13.052;2024-02-14T04:08:31;101424.00;;;8.60
23208;BMP180;11773;52.570;13.052;2024-02-14T04:11:01;101431.00;;;8.60
23208;BMP180;11773;52.570;13.052;2024-02-14T04:13:31;101429.00;;;8.60
23208;BMP180;11773;52.570;13.052;2024-02-14T04:16:01;101443.00;;;8.70
23208;BMP180;11773;52.570;13.052;2024-02-14T04:18:30;101434.00;;;8.70
23208;BMP180;11773;52.570;13.052;2024-02-14T04:21:00;101430.00;;;8.70
23208;BMP180;11773;52.570;13.052;2024-02-14T04:23:31;101434.00;;;8.70
23208;BMP180;11773;52.570;13.052;2024-02-14T04:26:01;101433.00;;;8.70
23208;BMP180;11773;52.570;13.052;2024-02-14T04:28:31;101428.00;;;8.70
23208;BMP180;11773;52.570;13.052;2024-02-14T04:31:01;101439.00;;;8.80
23208;BMP180;11773;52.570;13.052;2024-02-14T04:33:30;101441.00;;;8.80
23208;BMP180;11773;52.570;13.052;2024-02-14T04:36:00;101420.00;;;8.80
23208;BMP180;11773;52.570;13.052;2024-02-14T04:38:30;101425.00;;;8.80
23208;BMP180;11773;52.570;13.052;2024-02-14T04:40:59;101435.00;;;8.90
23208;BMP180;11773;52.570;13.052;2024-02-14T04:43:29;101428.00;;;8.90
23208;BMP180;11773;52.570;13.052;2024-02-14T04:45:58;101436.00;;;8.90
23208;BMP180;11773;52.570;13.052;2024-02-14T04:48:28;101418.00;;;8.90
23208;BMP180;11773;52.570;13.052;2024-02-14T04:50:58;101432.00;;;8.90
23208;BMP180;11773;52.570;13.052;2024-02-14T04:53:29;101427.00;;;8.90
23208;BMP180;11773;52.570;13.052;2024-02-14T04:55:59;101413.00;;;8.90
23208;BMP180;11773;52.570;13.052;2024-02-14T04:58:29;101401.00;;;8.90
23208;BMP180;11773;52.570;13.052;2024-02-14T05:00:58;101408.00;;;8.90
23208;BMP180;11773;52.570;13.052;2024-02-14T05:03:28;101394.00;;;8.90
23208;BMP180;11773;52.570;13.052;2024-02-14T05:05:58;101385.00;;;8.90
23208;BMP180;11773;52.570;13.052;2024-02-14T05:08:29;101376.00;;;8.90
23208;BMP180;11773;52.570;13.052;2024-02-14T05:10:59;101392.00;;;8.90
23208;BMP180;11773;52.570;13.052;2024-02-14T05:13:29;101385.00;;;8.90
23208;BMP180;11773;52.570;13.052;2024-02-14T05:16:04;101380.00;;;8.90
23208;BMP180;11773;52.570;13.052;2024-02-14T05:18:33;101377.00;;;8.90
23208;BMP180;11773;52.570;13.052;2024-02-14T05:21:06;101372.00;;;8.90
23208;BMP180;11773;52.570;13.052;2024-02-14T05:23:36;101373.00;;;8.90
23208;BMP180;11773;52.570;13.052;2024-02-14T05:26:07;101371.00;;;9.00
23208;BMP180;11773;52.570;13.052;2024-02-14T05:28:36;101357.00;;;9.00
23208;BMP180;11773;52.570;13.052;2024-02-14T05:31:06;101363.00;;;9.00
23208;BMP180;11773;52.570;13.052;2024-02-14T05:33:36;101348.00;;;9.00
23208;BMP180;11773;52.570;13.052;2024-02-14T05:36:06;101360.00;;;9.00
23208;BMP180;11773;52.570;13.052;2024-02-14T05:38:36;101346.00;;;9.00
23208;BMP180;11773;52.570;13.052;2024-02-14T05:41:05;101363.00;;;9.00
23208;BMP180;11773;52.570;13.052;2024-02-14T05:43:36;101347.00;;;9.00
23208;BMP180;11773;52.570;13.052;2024-02-14T05:46:07;101362.00;;;9.00
23208;BMP180;11773;52.570;13.052;2024-02-14T05:48:39;101350.00;;;9.00
23208;BMP180;11773;52.570;13.052;2024-02-14T05:51:10;101346.00;;;9.00
23208;BMP180;11773;52.570;13.052;2024-02-14T05:53:40;101348.00;;;9.00
23208;BMP180;11773;52.570;13.052;2024-02-14T05:56:09;101357.00;;;9.00
23208;BMP180;11773;52.570;13.052;2024-02-14T05:58:39;101339.00;;;9.00
23208;BMP180;11773;52.570;13.052;2024-02-14T06:01:09;101343.00;;;9.00
23208;BMP180;11773;52.570;13.052;2024-02-14T06:03:40;101345.00;;;9.10
23208;BMP180;11773;52.570;13.052;2024-02-14T06:06:09;101345.00;;;9.10
23208;BMP180;11773;52.570;13.052;2024-02-14T06:08:40;101346.00;;;9.10
23208;BMP180;11773;52.570;13.052;2024-02-14T06:11:09;101349.00;;;9.10
23208;BMP180;11773;52.570;13.052;2024-02-14T06:13:41;101342.00;;;9.10
23208;BMP180;11773;52.570;13.052;2024-02-14T06:16:12;101356.00;;;9.10
23208;BMP180;11773;52.570;13.052;2024-02-14T06:18:42;101359.00;;;9.20
23208;BMP180;11773;52.570;13.052;2024-02-14T06:21:12;101355.00;;;9.20
23208;BMP180;11773;52.570;13.052;2024-02-14T06:23:42;101361.00;;;9.20
23208;BMP180;11773;52.570;13.052;2024-02-14T06:26:13;101343.00;;;9.20
23208;BMP180;11773;52.570;13.052;2024-02-14T06:28:43;101356.00;;;9.30
23208;BMP180;11773;52.570;13.052;2024-02-14T06:31:13;101335.00;;;9.30
23208;BMP180;11773;52.570;13.052;2024-02-14T06:33:43;101336.00;;;9.30
23208;BMP180;11773;52.570;13.052;2024-02-14T06:36:13;101327.00;;;9.30
23208;BMP180;11773;52.570;13.052;2024-02-14T06:38:42;101324.00;;;9.30
23208;BMP180;11773;52.570;13.052;2024-02-14T06:41:14;101326.00;;;9.30
23208;BMP180;11773;52.570;13.052;2024-02-14T06:43:43;101318.00;;;9.30
23208;BMP180;11773;52.570;13.052;2024-02-14T06:46:13;101322.00;;;9.30
23208;BMP180;11773;52.570;13.052;2024-02-14T06:48:42;101318.00;;;9.30
23208;BMP180;11773;52.570;13.052;2024-02-14T06:51:12;101316.00;;;9.30
23208;BMP180;11773;52.570;13.052;2024-02-14T06:53:42;101317.00;;;9.30
23208;BMP180;11773;52.570;13.052;2024-02-14T06:56:11;101318.00;;;9.30
23208;BMP180;11773;52.570;13.052;2024-02-14T06:58:41;101326.00;;;9.30
23208;BMP180;11773;52.570;13.052;2024-02-14T07:01:10;101314.00;;;9.30
23208;BMP180;11773;52.570;13.052;2024-02-14T07:03:42;101322.00;;;9.40
23208;BMP180;11773;52.570;13.052;2024-02-14T07:06:13;101338.00;;;9.40
23208;BMP180;11773;52.570;13.052;2024-02-14T07:08:43;101331.00;;;9.40
23208;BMP180;11773;52.570;13.052;2024-02-14T07:11:13;101324.00;;;9.40
23208;BMP180;11773;52.570;13.052;2024-02-14T07:13:44;101330.00;;;9.40
23208;BMP180;11773;52.570;13.052;2024-02-14T07:16:14;101335.00;;;9.50
23208;BMP180;11773;52.570;13.052;2024-02-14T07:18:43;101340.00;;;9.50
23208;BMP180;11773;52.570;13.052;2024-02-14T07:21:13;101347.00;;;9.50
23208;BMP180;11773;52.570;13.052;2024-02-14T07:23:43;101365.00;;;9.60
23208;BMP180;11773;52.570;13.052;2024-02-14T07:26:12;101364.00;;;9.60
23208;BMP180;11773;52.570;13.052;2024-02-14T07:28:42;101377.00;;;9.60
23208;BMP180;11773;52.570;13.052;2024-02-14T07:31:12;101365.00;;;9.60
23208;BMP180;11773;52.570;13.052;2024-02-14T07:33:42;101368.00;;;9.70
23208;BMP180;11773;52.570;13.052;2024-02-14T07:36:13;101376.00;;;9.70
23208;BMP180;11773;52.570;13.052;2024-02-14T07:38:43;101372.00;;;9.70
23208;BMP180;11773;52.570;13.052;2024-02-14T07:41:13;101363.00;;;9.80
23208;BMP180;11773;52.570;13.052;2024-02-14T07:43:42;101360.00;;;9.80
23208;BMP180;11773;52.570;13.052;2024-02-14T07:46:16;101349.00;;;9.80
23208;BMP180;11773;52.570;13.052;2024-02-14T07:48:43;101355.00;;;9.90
23208;BMP180;11773;52.570;13.052;2024-02-14T07:51:13;101360.00;;;9.90
23208;BMP180;11773;52.570;13.052;2024-02-14T07:53:43;101344.00;;;9.90
23208;BMP180;11773;52.570;13.052;2024-02-14T07:56:12;101330.00;;;9.90
23208;BMP180;11773;52.570;13.052;2024-02-14T07:58:42;101332.00;;;10.00
23208;BMP180;11773;52.570;13.052;2024-02-14T08:01:11;101350.00;;;10.00
23208;BMP180;11773;52.570;13.052;2024-02-14T08:03:41;101333.00;;;10.00
23208;BMP180;11773;52.570;13.052;2024-02-14T08:06:11;101336.00;;;10.10
23208;BMP180;11773;52.570;13.052;2024-02-14T08:08:40;101339.00;;;10.10
23208;BMP180;11773;52.570;13.052;2024-02-14T08:11:12;101350.00;;;10.10
23208;BMP180;11773;52.570;13.052;2024-02-14T08:13:42;101333.00;;;10.20
23208;BMP180;11773;52.570;13.052;2024-02-14T08:16:12;101335.00;;;10.20
23208;BMP180;11773;52.570;13.052;2024-02-14T08:18:42;101335.00;;;10.20
23208;BMP180;11773;52.570;13.052;2024-02-14T08:21:13;101333.00;;;10.30
23208;BMP180;11773;52.570;13.052;2024-02-14T08:23:43;101325.00;;;10.30
23208;BMP180;11773;52.570;13.052;2024-02-14T08:26:13;101333.00;;;10.30
23208;BMP180;11773;52.570;13.052;2024-02-14T08:28:44;101313.00;;;10.40
23208;BMP180;11773;52.570;13.052;2024-02-14T08:31:15;101322.00;;;10.40
23208;BMP180;11773;52.570;13.052;2024-02-14T08:33:45;101338.00;;;10.50
23208;BMP180;11773;52.570;13.052;2024-02-14T08:36:15;101327.00;;;10.50
23208;BMP180;11773;52.570;13.052;2024-02-14T08:38:48;101345.00;;;10.50
23208;BMP180;11773;52.570;13.052;2024-02-14T08:41:18;101331.00;;;10.60
23208;BMP180;11773;52.570;13.052;2024-02-14T08:43:47;101321.00;;;10.60
23208;BMP180;11773;52.570;13.052;2024-02-14T08:46:18;101318.00;;;10.60
23208;BMP180;11773;52.570;13.052;2024-02-14T08:48:48;101326.00;;;10.70
23208;BMP180;11773;52.570;13.052;2024-02-14T08:51:19;101334.00;;;10.70
23208;BMP180;11773;52.570;13.052;2024-02-14T08:53:52;101331.00;;;10.80
23208;BMP180;11773;52.570;13.052;2024-02-14T08:56:23;101325.00;;;10.80
23208;BMP180;11773;52.570;13.052;2024-02-14T08:58:53;101332.00;;;10.80
23208;BMP180;11773;52.570;13.052;2024-02-14T09:01:22;101334.00;;;10.90
23208;BMP180;11773;52.570;13.052;2024-02-14T09:03:52;101329.00;;;10.90
23208;BMP180;11773;52.570;13.052;2024-02-14T09:06:22;101337.00;;;11.00
23208;BMP180;11773;52.570;13.052;2024-02-14T09:08:52;101343.00;;;11.00
23208;BMP180;11773;52.570;13.052;2024-02-14T09:11:23;101340.00;;;11.00
23208;BMP180;11773;52.570;13.052;2024-02-14T09:13:54;101330.00;;;11.00
23208;BMP180;11773;52.570;13.052;2024-02-14T09:16:25;101334.00;;;11.00
23208;BMP180;11773;52.570;13.052;2024-02-14T09:18:54;101332.00;;;11.10
23208;BMP180;11773;52.570;13.052;2024-02-14T09:21:24;101325.00;;;11.10
23208;BMP180;11773;52.570;13.052;2024-02-14T09:23:56;101327.00;;;11.10
23208;BMP180;11773;52.570;13.052;2024-02-14T09:26:26;101342.00;;;11.10
23208;BMP180;11773;52.570;13.052;2024-02-14T09:28:57;101332.00;;;11.10
23208;BMP180;11773;52.570;13.052;2024-02-14T09:31:26;101337.00;;;11.10
23208;BMP180;11773;52.570;13.052;2024-02-14T09:33:56;101334.00;;;11.20
23208;BMP180;11773;52.570;13.052;2024-02-14T09:36:27;101332.00;;;11.20
23208;BMP180;11773;52.570;13.052;2024-02-14T09:38:57;101324.00;;;11.20
23208;BMP180;11773;52.570;13.052;2024-02-14T09:41:41;101324.00;;;11.20
23208;BMP180;11773;52.570;13.052;2024-02-14T09:44:09;101324.00;;;11.20
23208;BMP180;11773;52.570;13.052;2024-02-14T09:46:39;101334.00;;;11.20
23208;BMP180;11773;52.570;13.052;2024-02-14T09:49:09;101331.00;;;11.30
23208;BMP180;11773;52.570;13.052;2024-02-14T09:51:42;101341.00;;;11.30
23208;BMP180;11773;52.570;13.052;2024-02-14T09:54:13;101344.00;;;11.30
23208;BMP180;11773;52.570;13.052;2024-02-14T09:56:52;101334.00;;;11.30
23208;BMP180;11773;52.570;13.052;2024-02-14T09:59:23;101335.00;;;11.30
23208;BMP180;11773;52.570;13.052;2024-02-14T10:01:53;101328.00;;;11.40
23208;BMP180;11773;52.570;13.052;2024-02-14T10:04:23;101324.00;;;11.40
23208;BMP180;11773;52.570;13.052;2024-02-14T10:06:54;101318.00;;;11.40
23208;BMP180;11773;52.570;13.052;2024-02-14T10:09:25;101325.00;;;11.40
23208;BMP180;11773;52.570;13.052;2024-02-14T10:11:55;101318.00;;;11.40
23208;BMP180;11773;52.570;13.052;2024-02-14T10:14:26;101322.00;;;11.50
23208;BMP180;11773;52.570;13.052;2024-02-14T10:16:55;101324.00;;;11.50
23208;BMP180;11773;52.570;13.052;2024-02-14T10:19:25;101336.00;;;11.50
23208;BMP180;11773;52.570;13.052;2024-02-14T10:21:59;101317.00;;;11.60
23208;BMP180;11773;52.570;13.052;2024-02-14T10:24:31;101319.00;;;11.60
23208;BMP180;11773;52.570;13.052;2024-02-14T10:27:00;101330.00;;;11.70
23208;BMP180;11773;52.570;13.052;2024-02-14T10:29:30;101321.00;;;11.70
23208;BMP180;11773;52.570;13.052;2024-02-14T10:32:01;101309.00;;;11.70
23208;BMP180;11773;52.570;13.052;2024-02-14T10:34:32;101321.00;;;11.70
23208;BMP180;11773;52.570;13.052;2024-02-14T10:37:03;101307.00;;;11.80
23208;BMP180;11773;52.570;13.052;2024-02-14T10:39:37;101307.00;;;11.80
23208;BMP180;11773;52.570;13.052;2024-02-14T10:42:08;101316.00;;;11.80
23208;BMP180;11773;52.570;13.052;2024-02-14T10:44:37;101326.00;;;11.90
23208;BMP180;11773;52.570;13.052;2024-02-14T10:47:10;101318.00;;;11.90
23208;BMP180;11773;52.570;13.052;2024-02-14T10:49:43;101319.00;;;11.90
23208;BMP180;11773;52.570;13.052;2024-02-14T10:52:16;101307.00;;;12.00
23208;BMP180;11773;52.570;13.052;2024-02-14T10:54:55;101300.00;;;12.00
23208;BMP180;11773;52.570;13.052;2024-02-14T10:57:26;101299.00;;;12.00
23208;BMP180;11773;52.570;13.052;2024-02-14T11:00:03;101303.00;;;12.10
23208;BMP180;11773;52.570;13.052;2024-02-14T11:02:34;101298.00;;;12.10
23208;BMP180;11773;52.570;13.052;2024-02-14T11:05:05;101311.00;;;12.10
23208;BMP180;11773;52.570;13.052;2024-02-14T11:07:35;101298.00;;;12.10
23208;BMP180;11773;52.570;13.052;2024-02-14T11:10:07;101300.00;;;12.10
23208;BMP180;11773;52.570;13.052;2024-02-14T11:12:37;101296.00;;;12.20
23208;BMP180;11773;52.570;13.052;2024-02-14T11:15:22;101289.00;;;12.20
23208;BMP180;11773;52.570;13.052;2024-02-14T11:18:05;101292.00;;;12.20
23208;BMP180;11773;52.570;13.052;2024-02-14T11:20:37;101287.00;;;12.20
23208;BMP180;11773;52.570;13.052;2024-02-14T11:23:08;101306.00;;;12.20
23208;BMP180;11773;52.570;13.052;2024-02-14T11:25:43;101303.00;;;12.30
23208;BMP180;11773;52.570;13.052;2024-02-14T11:28:23;101309.00;;;12.30
23208;BMP180;11773;52.570;13.052;2024-02-14T11:30:52;101287.00;;;12.30
23208;BMP180;11773;52.570;13.052;2024-02-14T11:33:24;101289.00;;;12.40
23208;BMP180;11773;52.570;13.052;2024-02-14T11:35:55;101288.00;;;12.40
23208;BMP180;11773;52.570;13.052;2024-02-14T11:38:26;101298.00;;;12.40
23208;BMP180;11773;52.570;13.052;2024-02-14T11:40:56;101295.00;;;12.50
23208;BMP180;11773;52.570;13.052;2024-02-14T11:43:26;101295.00;;;12.50
23208;BMP180;11773;52.570;13.052;2024-02-14T11:45:55;101301.00;;;12.50
23208;BMP180;11773;52.570;13.052;2024-02-14T11:48:25;101294.00;;;12.60
23208;BMP180;11773;52.570;13.052;2024-02-14T11:50:55;101293.00;;;12.60
23208;BMP180;11773;52.570;13.052;2024-02-14T11:53:25;101305.00;;;12.60
23208;BMP180;11773;52.570;13.052;2024-02-14T11:55:56;101293.00;;;12.60
23208;BMP180;11773;52.570;13.052;2024-02-14T11:58:26;101295.00;;;12.70
23208;BMP180;11773;52.570;13.052;2024-02-14T12:00:55;101290.00;;;12.70
23208;BMP180;11773;52.570;13.052;2024-02-14T12:03:26;101285.00;;;12.70
23208;BMP180;11773;52.570;13.052;2024-02-14T12:05:56;101301.00;;;12.80
23208;BMP180;11773;52.570;13.052;2024-02-14T12:08:27;101307.00;;;12.80
23208;BMP180;11773;52.570;13.052;2024-02-14T12:10:56;101294.00;;;12.80
23208;BMP180;11773;52.570;13.052;2024-02-14T12:13:26;101293.00;;;12.90
23208;BMP180;11773;52.570;13.052;2024-02-14T12:15:56;101295.00;;;12.90
23208;BMP180;11773;52.570;13.052;2024-02-14T12:18:25;101295.00;;;12.90
23208;BMP180;11773;52.570;13.052;2024-02-14T12:21:06;101298.00;;;13.00
23208;BMP180;11773;52.570;13.052;2024-02-14T12:23:40;101304.00;;;13.00
23208;BMP180;11773;52.570;13.052;2024-02-14T12:26:10;101296.00;;;13.00
23208;BMP180;11773;52.570;13.052;2024-02-14T12:28:41;101286.00;;;13.00
23208;BMP180;11773;52.570;13.052;2024-02-14T12:31:21;101288.00;;;13.10
23208;BMP180;11773;52.570;13.052;2024-02-14T12:33:45;101305.00;;;13.10
23208;BMP180;11773;52.570;13.052;2024-02-14T12:36:16;101291.00;;;13.10
23208;BMP180;11773;52.570;13.052;2024-02-14T12:38:46;101292.00;;;13.20
23208;BMP180;11773;52.570;13.052;2024-02-14T12:41:16;101292.00;;;13.20
23208;BMP180;11773;52.570;13.052;2024-02-14T12:43:46;101297.00;;;13.20
23208;BMP180;11773;52.570;13.052;2024-02-14T12:46:16;101290.00;;;13.30
23208;BMP180;11773;52.570;13.052;2024-02-14T12:48:46;101295.00;;;13.30
23208;BMP180;11773;52.570;13.052;2024-02-14T12:51:16;101290.00;;;13.30
23208;BMP180;11773;52.570;13.052;2024-02-14T12:53:46;101289.00;;;13.30
23208;BMP180;11773;52.570;13.052;2024-02-14T12:56:16;101291.00;;;13.40
23208;BMP180;11773;52.570;13.052;2024-02-14T12:58:46;101302.00;;;13.40
23208;BMP180;11773;52.570;13.052;2024-02-14T13:01:16;101298.00;;;13.40
23208;BMP180;11773;52.570;13.052;2024-02-14T13:03:47;101309.00;;;13.50
23208;BMP180;11773;52.570;13.052;2024-02-14T13:06:16;101304.00;;;13.50
23208;BMP180;11773;52.570;13.052;2024-02-14T13:08:46;101302.00;;;13.50
23208;BMP180;11773;52.570;13.052;2024-02-14T13:11:15;101297.00;;;13.50
23208;BMP180;11773;52.570;13.052;2024-02-14T13:13:47;101306.00;;;13.50
23208;BMP180;11773;52.570;13.052;2024-02-14T13:16:17;101300.00;;;13.50
23208;BMP180;11773;52.570;13.052;2024-02-14T13:18:46;101306.00;;;13.60
23208;BMP180;11773;52.570;13.052;2024-02-14T13:21:16;101303.00;;;13.60
23208;BMP180;11773;52.570;13.052;2024-02-14T13:23:46;101317.00;;;13.60
23208;BMP180;11773;52.570;13.052;2024-02-14T13:26:16;101307.00;;;13.70
23208;BMP180;11773;52.570;13.052;2024-02-14T13:28:45;101304.00;;;13.70
23208;BMP180;11773;52.570;13.052;2024-02-14T13:31:15;101316.00;;;13.70
23208;BMP180;11773;52.570;13.052;2024-02-14T13:33:45;101303.00;;;13.70
23208;BMP180;11773;52.570;13.052;2024-02-14T13:36:15;101313.00;;;13.70
23208;BMP180;11773;52.570;13.052;2024-02-14T13:38:45;101307.00;;;13.80
23208;BMP180;11773;52.570;13.052;2024-02-14T13:41:15;101311.00;;;13.80
23208;BMP180;11773;52.570;13.052;2024-02-14T13:43:45;101324.00;;;13.80
23208;BMP180;11773;52.570;13.052;2024-02-14T13:46:15;101325.00;;;13.80
23208;BMP180;11773;52.570;13.052;2024-02-14T13:48:45;101321.00;;;13.80
23208;BMP180;11773;52.570;13.052;2024-02-14T13:51:14;101324.00;;;13.90
23208;BMP180;11773;52.570;13.052;2024-02-14T13:53:44;101318.00;;;13.90
23208;BMP180;11773;52.570;13.052;2024-02-14T13:56:14;101322.00;;;13.90
23208;BMP180;11773;52.570;13.052;2024-02-14T13:58:44;101317.00;;;13.90
23208;BMP180;11773;52.570;13.052;2024-02-14T14:01:14;101311.00;;;13.90
23208;BMP180;11773;52.570;13.052;2024-02-14T14:03:45;101316.00;;;13.90
23208;BMP180;11773;52.570;13.052;2024-02-14T14:06:16;101316.00;;;14.00
23208;BMP180;11773;52.570;13.052;2024-02-14T14:08:46;101330.00;;;14.00